Time;durP1;ratioP1;P1;durP2;ratioP2;P2;SDS_P1;SDS_P2;PMS_P1;PMS_P2;Temp;Humidity;BMP_temperature;BMP_pressure;BME280_temperature;BME280_humidity;BME280_pressure;Samples;Min_cycle;Max_cycle;Signal;HPM_P1;HPM_P2
2023/11/20 00:01:54;;;;;;;;;;;17.70;62.90;;;;;;5022815;28;20317;-55
2023/11/20 00:04:19;;;;;;;;;;;18.30;61.50;;;;;;5025269;28;20340;-52
2023/11/20 00:06:45;;;;;;;;;;;18.90;60.00;;;;;;5024088;28;19920;-53
2023/11/20 00:09:10;;;;;;;;;;;19.50;58.50;;;;;;5024247;28;19935;-54
2023/11/20 00:11:36;;;;;;;;;;;20.00;57.30;;;;;;5023016;28;19916;-57
2023/11/20 00:14:01;;;;;;;;;;;20.60;56.20;;;;;;5025264;28;19916;-53
2023/11/20 00:16:27;;;;;;;;;;;21.00;55.10;;;;;;5026039;28;19916;-58
2023/11/20 00:18:52;;;;;;;;;;;21.30;54.30;;;;;;5024642;28;19909;-55
2023/11/20 00:21:18;;;;;;;;;;;21.70;53.70;;;;;;5019385;28;20357;-55
2023/11/20 00:23:44;;;;;;;;;;;21.90;53.20;;;;;;5022940;28;19917;-55
2023/11/20 00:26:14;;;;;;;;;;;21.90;53.00;;;;;;5023096;28;20011;-55
2023/11/20 00:28:41;;;;;;;;;;;21.90;53.00;;;;;;5023279;28;19909;-55
2023/11/20 00:31:16;;;;;;;;;;;21.90;53.20;;;;;;5022721;28;19924;-53
2023/11/20 00:33:42;;;;;;;;;;;21.70;53.60;;;;;;5022516;28;19916;-53
2023/11/20 00:36:08;;;;;;;;;;;21.60;53.90;;;;;;5022931;28;19936;-54
2023/11/20 00:38:33;;;;;;;;;;;21.40;54.30;;;;;;5024007;28;19909;-53
2023/11/20 00:40:58;;;;;;;;;;;21.20;54.70;;;;;;5025127;28;19928;-55
2023/11/20 00:43:24;;;;;;;;;;;21.10;55.20;;;;;;5022941;28;20657;-52
2023/11/20 00:45:49;;;;;;;;;;;20.90;55.50;;;;;;5023367;28;20408;-54
2023/11/20 00:48:15;;;;;;;;;;;20.80;55.90;;;;;;5023885;28;20397;-59
2023/11/20 00:50:41;;;;;;;;;;;20.60;56.30;;;;;;5023328;28;19916;-55
2023/11/20 00:53:07;;;;;;;;;;;20.40;56.60;;;;;;5022832;28;20404;-56
2023/11/20 00:55:32;;;;;;;;;;;20.30;57.10;;;;;;5022859;28;20514;-54
2023/11/20 00:57:58;;;;;;;;;;;20.20;57.50;;;;;;5023864;28;20017;-56
2023/11/20 01:00:24;;;;;;;;;;;20.10;57.80;;;;;;5022729;28;19920;-55
2023/11/20 01:02:50;;;;;;;;;;;19.90;58.00;;;;;;5023616;28;19919;-54
2023/11/20 01:05:16;;;;;;;;;;;19.80;58.40;;;;;;5023070;28;19909;-58
2023/11/20 01:07:41;;;;;;;;;;;19.70;58.70;;;;;;5023605;28;19935;-57
2023/11/20 01:10:07;;;;;;;;;;;19.60;59.00;;;;;;5022871;28;19912;-52
2023/11/20 01:12:33;;;;;;;;;;;19.50;59.40;;;;;;5024052;28;19927;-56
2023/11/20 01:14:58;;;;;;;;;;;19.40;59.50;;;;;;5022818;28;20007;-56
2023/11/20 01:17:24;;;;;;;;;;;19.30;59.70;;;;;;5025898;28;19909;-58
2023/11/20 01:19:49;;;;;;;;;;;19.20;59.90;;;;;;5029130;28;20390;-55
2023/11/20 01:22:14;;;;;;;;;;;19.20;60.20;;;;;;5029135;28;20051;-55
2023/11/20 01:24:40;;;;;;;;;;;19.10;60.30;;;;;;5029213;28;19913;-58
2023/11/20 01:27:06;;;;;;;;;;;19.00;60.40;;;;;;5029409;28;19909;-57
2023/11/20 01:29:32;;;;;;;;;;;19.00;60.60;;;;;;5029436;28;19923;-56
2023/11/20 01:31:58;;;;;;;;;;;18.90;60.70;;;;;;5028677;28;19971;-57
2023/11/20 01:34:23;;;;;;;;;;;18.80;60.90;;;;;;5029495;28;19944;-56
2023/11/20 01:36:49;;;;;;;;;;;18.80;61.00;;;;;;5028952;28;19913;-55
2023/11/20 01:39:14;;;;;;;;;;;18.70;61.10;;;;;;5030100;28;19909;-54
2023/11/20 01:41:39;;;;;;;;;;;18.70;61.30;;;;;;5028912;28;19909;-54
2023/11/20 01:44:06;;;;;;;;;;;18.70;61.50;;;;;;5028628;28;20246;-55
2023/11/20 01:46:31;;;;;;;;;;;18.60;61.60;;;;;;5026599;28;20051;-52
2023/11/20 01:48:59;;;;;;;;;;;18.60;61.70;;;;;;5033657;28;19999;-57
2023/11/20 01:51:27;;;;;;;;;;;18.50;61.80;;;;;;5036440;28;19913;-55
2023/11/20 01:53:54;;;;;;;;;;;18.50;61.90;;;;;;5033117;28;19913;-56
2023/11/20 01:56:20;;;;;;;;;;;18.50;61.90;;;;;;5033278;28;19935;-53
2023/11/20 01:58:47;;;;;;;;;;;18.40;62.00;;;;;;5029044;28;20366;-58
2023/11/20 02:01:13;;;;;;;;;;;18.40;62.00;;;;;;5032479;28;19909;-56
2023/11/20 02:03:38;;;;;;;;;;;18.40;62.10;;;;;;5028741;28;19916;-58
2023/11/20 02:06:04;;;;;;;;;;;18.30;62.20;;;;;;5029635;28;19920;-55
2023/11/20 02:08:29;;;;;;;;;;;18.30;62.30;;;;;;5027552;28;19916;-58
2023/11/20 02:10:56;;;;;;;;;;;18.30;62.40;;;;;;5028828;28;19969;-55
2023/11/20 02:13:22;;;;;;;;;;;18.20;62.40;;;;;;5028832;28;19909;-58
2023/11/20 02:15:47;;;;;;;;;;;18.20;62.60;;;;;;5035998;28;20293;-56
2023/11/20 02:18:33;;;;;;;;;;;18.10;62.70;;;;;;5030053;28;20289;-57
2023/11/20 02:20:59;;;;;;;;;;;18.20;62.80;;;;;;5031828;28;20517;-58
2023/11/20 02:23:24;;;;;;;;;;;18.10;62.90;;;;;;5034778;28;19948;-52
2023/11/20 02:25:59;;;;;;;;;;;18.10;62.80;;;;;;5032969;28;19952;-53
2023/11/20 02:28:26;;;;;;;;;;;18.10;62.90;;;;;;5029569;28;20329;-56
2023/11/20 02:30:53;;;;;;;;;;;18.10;63.00;;;;;;5025705;28;19970;-54
2023/11/20 02:33:19;;;;;;;;;;;18.10;63.10;;;;;;5028490;28;19928;-55
2023/11/20 02:35:44;;;;;;;;;;;18.10;63.00;;;;;;5026510;28;19908;-58
2023/11/20 02:38:10;;;;;;;;;;;18.10;63.00;;;;;;5028271;28;20529;-54
2023/11/20 02:40:36;;;;;;;;;;;18.10;63.10;;;;;;5025605;28;19963;-52
2023/11/20 02:43:02;;;;;;;;;;;18.00;63.00;;;;;;5025043;28;20236;-55
2023/11/20 02:45:27;;;;;;;;;;;18.00;63.00;;;;;;5028226;28;20018;-56
2023/11/20 02:47:53;;;;;;;;;;;18.00;63.00;;;;;;5028391;28;20255;-55
2023/11/20 02:50:18;;;;;;;;;;;18.00;63.00;;;;;;5024955;28;20129;-52
2023/11/20 02:52:44;;;;;;;;;;;18.00;63.00;;;;;;5025779;28;19992;-55
2023/11/20 02:55:09;;;;;;;;;;;18.00;63.00;;;;;;5028030;28;20027;-56
2023/11/20 02:57:34;;;;;;;;;;;17.90;63.00;;;;;;5028288;28;19932;-52
2023/11/20 03:00:00;;;;;;;;;;;17.90;63.00;;;;;;5029843;28;20277;-54
2023/11/20 03:02:26;;;;;;;;;;;17.90;63.20;;;;;;5027768;28;19992;-55
2023/11/20 03:04:54;;;;;;;;;;;17.90;63.20;;;;;;5016784;28;20370;-58
2023/11/20 03:07:20;;;;;;;;;;;18.00;63.20;;;;;;5017005;28;20515;-59
2023/11/20 03:09:46;;;;;;;;;;;17.90;63.20;;;;;;5020634;28;19913;-56
2023/11/20 03:12:12;;;;;;;;;;;17.90;63.20;;;;;;5020437;28;20426;-53
2023/11/20 03:14:37;;;;;;;;;;;17.90;63.20;;;;;;5014129;28;19917;-57
2023/11/20 03:17:04;;;;;;;;;;;17.90;63.20;;;;;;5021528;28;19913;-54
2023/11/20 03:19:30;;;;;;;;;;;17.90;63.20;;;;;;5014955;28;19916;-58
2023/11/20 03:21:56;;;;;;;;;;;17.90;63.30;;;;;;5016825;28;20290;-57
2023/11/20 03:24:21;;;;;;;;;;;17.90;63.30;;;;;;5017174;28;20754;-52
2023/11/20 03:26:47;;;;;;;;;;;17.80;63.20;;;;;;5017533;28;19909;-57
2023/11/20 03:29:12;;;;;;;;;;;17.80;63.30;;;;;;5017731;28;20304;-55
2023/11/20 03:31:38;;;;;;;;;;;17.80;63.20;;;;;;5021222;28;20508;-59
2023/11/20 03:34:04;;;;;;;;;;;17.80;63.20;;;;;;5024224;28;19921;-59
2023/11/20 03:36:30;;;;;;;;;;;17.80;63.40;;;;;;5025183;28;19917;-52
2023/11/20 03:38:56;;;;;;;;;;;17.80;63.20;;;;;;5026020;28;19987;-52
2023/11/20 03:41:21;;;;;;;;;;;17.80;63.40;;;;;;5027057;28;20334;-54
2023/11/20 03:43:46;;;;;;;;;;;17.80;63.40;;;;;;5027070;28;19909;-62
2023/11/20 03:46:12;;;;;;;;;;;17.80;63.30;;;;;;5023016;28;19909;-54
2023/11/20 03:48:37;;;;;;;;;;;17.80;63.40;;;;;;5022928;28;19962;-55
2023/11/20 03:51:04;;;;;;;;;;;17.80;63.40;;;;;;5022601;28;19995;-55
2023/11/20 03:53:30;;;;;;;;;;;17.80;63.40;;;;;;5022449;28;19949;-55
2023/11/20 03:55:56;;;;;;;;;;;17.80;63.40;;;;;;5022154;28;20318;-52
2023/11/20 03:58:21;;;;;;;;;;;17.80;63.40;;;;;;5024341;28;20015;-53
2023/11/20 04:00:47;;;;;;;;;;;17.70;63.40;;;;;;5023632;28;20285;-62
2023/11/20 04:03:12;;;;;;;;;;;17.70;63.40;;;;;;5025393;28;19912;-52
2023/11/20 04:05:38;;;;;;;;;;;17.70;63.50;;;;;;5022556;28;20273;-55
2023/11/20 04:08:05;;;;;;;;;;;17.70;63.50;;;;;;5024206;28;19912;-58
2023/11/20 04:10:30;;;;;;;;;;;17.70;63.50;;;;;;5023892;28;19920;-53
2023/11/20 04:12:56;;;;;;;;;;;17.70;63.40;;;;;;5024246;28;19913;-54
2023/11/20 04:15:22;;;;;;;;;;;17.70;63.50;;;;;;5023644;28;20324;-53
2023/11/20 04:17:47;;;;;;;;;;;17.70;63.50;;;;;;5023908;28;19910;-58
2023/11/20 04:20:13;;;;;;;;;;;17.70;63.50;;;;;;5025699;28;19917;-56
2023/11/20 04:22:39;;;;;;;;;;;17.70;63.50;;;;;;5024511;28;19919;-54
2023/11/20 04:25:05;;;;;;;;;;;17.70;63.50;;;;;;5024474;28;19940;-56
2023/11/20 04:27:31;;;;;;;;;;;17.70;63.50;;;;;;5025805;28;19916;-54
2023/11/20 04:29:56;;;;;;;;;;;17.70;63.60;;;;;;5023351;28;20416;-54
2023/11/20 04:32:22;;;;;;;;;;;17.70;63.60;;;;;;5023261;28;19939;-57
2023/11/20 04:34:47;;;;;;;;;;;17.60;63.60;;;;;;5024027;28;20336;-61
2023/11/20 04:37:14;;;;;;;;;;;17.60;63.60;;;;;;5023922;28;19913;-54
2023/11/20 04:39:39;;;;;;;;;;;17.60;63.50;;;;;;5024722;28;19933;-56
2023/11/20 04:42:05;;;;;;;;;;;17.60;63.50;;;;;;5025401;28;19909;-52
2023/11/20 04:44:30;;;;;;;;;;;17.60;63.50;;;;;;5023313;28;20365;-55
2023/11/20 04:46:56;;;;;;;;;;;17.60;63.50;;;;;;5024214;28;20421;-59
2023/11/20 04:49:21;;;;;;;;;;;17.60;63.50;;;;;;5023572;28;20334;-56
2023/11/20 04:51:47;;;;;;;;;;;17.60;63.60;;;;;;5024620;28;19913;-52
2023/11/20 04:54:13;;;;;;;;;;;17.60;63.60;;;;;;5022496;28;19909;-54
2023/11/20 04:56:38;;;;;;;;;;;17.60;63.60;;;;;;5025403;28;19947;-58
2023/11/20 04:59:07;;;;;;;;;;;17.60;63.60;;;;;;5022607;28;20286;-55
2023/11/20 05:01:33;;;;;;;;;;;17.60;63.60;;;;;;5023026;28;19996;-54
2023/11/20 05:03:59;;;;;;;;;;;17.60;63.60;;;;;;5022383;28;20011;-58
2023/11/20 05:06:24;;;;;;;;;;;17.60;63.60;;;;;;5022939;28;19913;-54
2023/11/20 05:08:49;;;;;;;;;;;17.60;63.70;;;;;;5022438;28;19913;-56
2023/11/20 05:11:15;;;;;;;;;;;17.60;63.70;;;;;;5023215;28;19921;-55
2023/11/20 05:13:41;;;;;;;;;;;17.60;63.70;;;;;;5022471;28;19944;-59
2023/11/20 05:16:07;;;;;;;;;;;17.60;63.70;;;;;;5026654;28;19909;-59
2023/11/20 05:18:32;;;;;;;;;;;17.60;63.60;;;;;;5022887;28;19926;-58
2023/11/20 05:20:58;;;;;;;;;;;17.60;63.70;;;;;;5022231;28;19909;-58
2023/11/20 05:23:24;;;;;;;;;;;17.50;63.60;;;;;;5022054;28;19924;-57
2023/11/20 05:25:49;;;;;;;;;;;17.50;63.60;;;;;;5023320;28;19958;-58
2023/11/20 05:28:15;;;;;;;;;;;17.60;63.70;;;;;;5022700;28;19991;-52
2023/11/20 05:30:40;;;;;;;;;;;17.50;63.70;;;;;;5023982;28;19936;-55
2023/11/20 05:33:06;;;;;;;;;;;17.50;63.60;;;;;;5023188;28;19917;-55
2023/11/20 05:35:33;;;;;;;;;;;17.50;63.60;;;;;;5022705;28;19913;-53
2023/11/20 05:37:58;;;;;;;;;;;17.50;63.60;;;;;;5022953;28;19909;-60
2023/11/20 05:40:24;;;;;;;;;;;17.50;63.70;;;;;;5021438;28;19958;-55
2023/11/20 05:42:50;;;;;;;;;;;17.50;63.70;;;;;;5022420;28;19914;-56
2023/11/20 05:45:15;;;;;;;;;;;17.50;63.70;;;;;;5024341;28;20477;-56
2023/11/20 05:47:41;;;;;;;;;;;17.50;63.70;;;;;;5023096;28;19909;-52
2023/11/20 05:50:07;;;;;;;;;;;17.50;63.80;;;;;;5022001;28;19989;-55
2023/11/20 05:52:32;;;;;;;;;;;17.50;63.70;;;;;;5022353;28;19913;-55
2023/11/20 05:54:58;;;;;;;;;;;17.50;63.60;;;;;;5022479;28;19909;-57
2023/11/20 05:57:23;;;;;;;;;;;17.50;63.70;;;;;;5019947;28;19952;-57
2023/11/20 05:59:49;;;;;;;;;;;17.50;63.60;;;;;;5022840;28;19909;-53
2023/11/20 06:02:14;;;;;;;;;;;17.50;63.60;;;;;;5022106;28;19936;-58
2023/11/20 06:04:40;;;;;;;;;;;17.50;63.70;;;;;;5024100;28;20000;-58
2023/11/20 06:07:06;;;;;;;;;;;17.50;63.70;;;;;;5025261;28;20003;-55
2023/11/20 06:09:32;;;;;;;;;;;17.50;63.80;;;;;;5023230;28;19975;-58
2023/11/20 06:11:57;;;;;;;;;;;17.40;63.70;;;;;;5024570;28;20027;-52
2023/11/20 06:14:23;;;;;;;;;;;17.50;63.80;;;;;;5025523;28;20400;-54
2023/11/20 06:16:48;;;;;;;;;;;17.40;63.80;;;;;;5027266;28;20236;-57
2023/11/20 06:19:14;;;;;;;;;;;17.50;63.80;;;;;;5026206;28;20116;-53
2023/11/20 06:21:46;;;;;;;;;;;17.40;63.80;;;;;;5027268;28;20555;-52
2023/11/20 06:24:11;;;;;;;;;;;17.50;63.80;;;;;;5026135;28;19921;-57
2023/11/20 06:26:36;;;;;;;;;;;17.40;63.70;;;;;;5025101;28;19913;-59
2023/11/20 06:29:02;;;;;;;;;;;17.40;63.70;;;;;;5024918;28;19909;-58
2023/11/20 06:31:27;;;;;;;;;;;17.40;63.80;;;;;;5021956;28;19913;-55
2023/11/20 06:33:53;;;;;;;;;;;17.40;63.80;;;;;;5024541;28;19915;-55
2023/11/20 06:36:18;;;;;;;;;;;17.40;63.70;;;;;;5024099;28;19967;-59
2023/11/20 06:38:44;;;;;;;;;;;17.40;63.80;;;;;;5023684;28;20362;-54
2023/11/20 06:41:09;;;;;;;;;;;17.40;63.70;;;;;;5024625;28;19963;-57
2023/11/20 06:43:35;;;;;;;;;;;17.40;63.80;;;;;;5024025;28;20365;-55
2023/11/20 06:46:01;;;;;;;;;;;17.40;63.80;;;;;;5025831;28;20410;-55
2023/11/20 06:48:26;;;;;;;;;;;17.40;63.80;;;;;;5024615;28;20263;-52
2023/11/20 06:50:52;;;;;;;;;;;17.40;63.70;;;;;;5025321;28;19916;-57
2023/11/20 06:53:17;;;;;;;;;;;17.40;64.40;;;;;;5024990;28;20387;-52
2023/11/20 06:55:42;;;;;;;;;;;17.40;63.70;;;;;;5025869;28;19955;-55
2023/11/20 06:58:09;;;;;;;;;;;17.40;63.80;;;;;;5025779;28;19917;-54
2023/11/20 07:00:36;;;;;;;;;;;17.40;63.70;;;;;;5025167;28;19909;-56
2023/11/20 07:03:04;;;;;;;;;;;17.40;63.70;;;;;;5025362;28;19909;-56
2023/11/20 07:05:30;;;;;;;;;;;17.40;63.80;;;;;;5024968;28;20005;-60
2023/11/20 07:07:56;;;;;;;;;;;17.40;64.40;;;;;;5025831;28;19992;-53
2023/11/20 07:10:23;;;;;;;;;;;17.40;63.80;;;;;;5024844;28;19909;-58
2023/11/20 07:12:52;;;;;;;;;;;17.40;63.80;;;;;;5025101;28;19913;-53
2023/11/20 07:15:21;;;;;;;;;;;17.30;63.70;;;;;;5023706;28;19913;-55
2023/11/20 07:17:47;;;;;;;;;;;17.40;63.80;;;;;;5025034;28;19909;-55
2023/11/20 07:20:13;;;;;;;;;;;17.40;63.80;;;;;;5023262;28;20012;-52
2023/11/20 07:22:38;;;;;;;;;;;17.40;64.80;;;;;;5025186;28;20389;-56
2023/11/20 07:25:04;;;;;;;;;;;17.40;64.10;;;;;;5024466;28;20597;-57
2023/11/20 07:27:31;;;;;;;;;;;17.40;63.90;;;;;;5024339;28;19921;-54
2023/11/20 07:29:56;;;;;;;;;;;17.40;63.80;;;;;;5024310;28;20392;-56
2023/11/20 07:32:22;;;;;;;;;;;17.40;63.80;;;;;;5022828;28;19913;-55
2023/11/20 07:34:47;;;;;;;;;;;17.40;63.90;;;;;;5024585;28;20534;-54
2023/11/20 07:37:13;;;;;;;;;;;17.40;63.90;;;;;;5023695;28;19913;-55
2023/11/20 07:39:38;;;;;;;;;;;17.40;63.80;;;;;;5024471;28;19916;-57
2023/11/20 07:42:04;;;;;;;;;;;17.40;63.80;;;;;;5023854;28;19915;-58
2023/11/20 07:44:29;;;;;;;;;;;17.40;63.80;;;;;;5019641;28;20004;-53
2023/11/20 07:46:54;;;;;;;;;;;17.40;63.80;;;;;;5024075;28;19932;-59
2023/11/20 07:49:20;;;;;;;;;;;17.30;63.80;;;;;;5020216;28;19919;-58
2023/11/20 07:51:46;;;;;;;;;;;17.40;63.80;;;;;;5019647;28;19913;-55
2023/11/20 07:54:12;;;;;;;;;;;17.30;63.80;;;;;;5015522;28;19913;-59
2023/11/20 07:56:37;;;;;;;;;;;17.30;64.10;;;;;;5019948;28;20011;-55
2023/11/20 07:59:03;;;;;;;;;;;17.30;63.80;;;;;;5016972;28;19969;-58
2023/11/20 08:01:29;;;;;;;;;;;17.40;63.90;;;;;;5018699;28;20305;-55
2023/11/20 08:03:54;;;;;;;;;;;17.30;63.80;;;;;;5018670;28;20540;-59
2023/11/20 08:06:20;;;;;;;;;;;17.30;63.70;;;;;;5016498;28;19966;-57
2023/11/20 08:08:45;;;;;;;;;;;17.30;63.80;;;;;;5019360;28;19913;-59
2023/11/20 08:11:11;;;;;;;;;;;17.30;63.80;;;;;;5017356;28;19913;-57
2023/11/20 08:13:37;;;;;;;;;;;17.30;63.80;;;;;;5015694;28;19912;-55
2023/11/20 08:16:03;;;;;;;;;;;17.30;63.80;;;;;;5016672;28;19909;-55
2023/11/20 08:18:28;;;;;;;;;;;17.30;63.80;;;;;;5016350;28;19943;-57
2023/11/20 08:20:54;;;;;;;;;;;17.30;63.80;;;;;;5019556;28;20582;-56
2023/11/20 08:23:20;;;;;;;;;;;17.30;63.80;;;;;;5015687;28;20425;-54
2023/11/20 08:25:46;;;;;;;;;;;17.30;63.80;;;;;;5019542;28;19968;-59
2023/11/20 08:28:11;;;;;;;;;;;17.30;63.70;;;;;;5020865;28;19909;-54
2023/11/20 08:30:36;;;;;;;;;;;17.30;63.80;;;;;;5020732;28;19909;-52
2023/11/20 08:33:02;;;;;;;;;;;17.30;63.80;;;;;;5012022;28;20433;-56
2023/11/20 08:35:28;;;;;;;;;;;17.30;63.80;;;;;;5021677;28;19909;-56
2023/11/20 08:37:54;;;;;;;;;;;17.30;63.80;;;;;;5021245;28;19937;-57
2023/11/20 08:40:20;;;;;;;;;;;17.30;63.80;;;;;;5024286;28;19976;-56
2023/11/20 08:42:46;;;;;;;;;;;17.30;63.80;;;;;;5025407;28;20004;-55
2023/11/20 08:45:12;;;;;;;;;;;17.30;63.80;;;;;;5020915;28;19909;-59
2023/11/20 08:47:39;;;;;;;;;;;17.30;63.70;;;;;;5015627;28;19917;-55
2023/11/20 08:50:06;;;;;;;;;;;17.30;63.80;;;;;;5017132;28;19909;-58
2023/11/20 08:52:31;;;;;;;;;;;17.30;63.70;;;;;;5019880;28;19921;-57
2023/11/20 08:54:57;;;;;;;;;;;17.30;63.80;;;;;;5015809;28;19909;-57
2023/11/20 08:57:22;;;;;;;;;;;17.30;63.80;;;;;;5017327;28;20015;-55
2023/11/20 08:59:48;;;;;;;;;;;17.30;63.80;;;;;;5017287;28;19962;-56
2023/11/20 09:02:14;;;;;;;;;;;17.30;63.70;;;;;;5020904;28;19917;-56
2023/11/20 09:04:39;;;;;;;;;;;17.50;65.80;;;;;;5018229;28;20701;-52
2023/11/20 09:07:05;;;;;;;;;;;17.70;65.80;;;;;;5017769;28;20427;-51
2023/11/20 09:09:31;;;;;;;;;;;17.80;65.60;;;;;;5021460;28;19913;-54
2023/11/20 09:11:56;;;;;;;;;;;17.80;65.50;;;;;;5022422;28;19916;-53
2023/11/20 09:14:22;;;;;;;;;;;17.90;65.40;;;;;;5019047;28;19936;-53
2023/11/20 09:16:47;;;;;;;;;;;17.90;65.20;;;;;;5019044;28;19916;-51
2023/11/20 09:19:13;;;;;;;;;;;17.90;65.20;;;;;;5024076;28;19909;-51
2023/11/20 09:21:38;;;;;;;;;;;18.00;65.10;;;;;;5024388;28;20201;-53
2023/11/20 09:24:04;;;;;;;;;;;17.90;64.90;;;;;;5022867;28;19917;-53
2023/11/20 09:26:30;;;;;;;;;;;18.00;64.90;;;;;;5023076;28;19909;-51
2023/11/20 09:28:55;;;;;;;;;;;18.00;65.00;;;;;;5026311;28;20516;-55
2023/11/20 09:31:21;;;;;;;;;;;18.00;65.00;;;;;;5019846;28;19963;-55
2023/11/20 09:33:47;;;;;;;;;;;18.10;64.80;;;;;;5022570;28;19908;-53
2023/11/20 09:36:12;;;;;;;;;;;18.10;64.80;;;;;;5019403;28;20443;-53
2023/11/20 09:38:38;;;;;;;;;;;18.10;64.70;;;;;;5028330;28;19998;-55
2023/11/20 09:41:04;;;;;;;;;;;18.10;64.60;;;;;;5026015;28;20430;-55
2023/11/20 09:43:29;;;;;;;;;;;18.10;64.60;;;;;;5030979;28;19909;-49
2023/11/20 09:45:58;;;;;;;;;;;18.10;64.50;;;;;;5032390;28;19908;-50
2023/11/20 09:48:24;;;;;;;;;;;18.10;64.50;;;;;;5027719;28;20039;-52
2023/11/20 09:50:50;;;;;;;;;;;18.10;64.40;;;;;;5032830;28;19912;-53
2023/11/20 09:53:15;;;;;;;;;;;18.10;64.40;;;;;;5025573;28;19919;-55
2023/11/20 09:55:42;;;;;;;;;;;18.10;64.50;;;;;;5028261;28;21904;-52
2023/11/20 09:58:07;;;;;;;;;;;18.10;64.40;;;;;;5028167;28;20418;-53
2023/11/20 10:00:35;;;;;;;;;;;18.10;64.50;;;;;;5025185;28;19936;-53
2023/11/20 10:03:01;;;;;;;;;;;18.10;64.50;;;;;;5027609;28;19917;-52
2023/11/20 10:05:30;;;;;;;;;;;18.10;64.40;;;;;;5025294;28;20333;-52
2023/11/20 10:07:57;;;;;;;;;;;18.10;64.40;;;;;;5024874;28;20257;-51
2023/11/20 10:10:23;;;;;;;;;;;18.10;64.80;;;;;;5029445;28;20622;-54
2023/11/20 10:12:49;;;;;;;;;;;18.10;64.40;;;;;;5029639;28;20011;-56
2023/11/20 10:15:14;;;;;;;;;;;18.10;64.40;;;;;;5027648;28;20000;-52
2023/11/20 10:17:40;;;;;;;;;;;18.10;64.40;;;;;;5024970;28;19913;-54
2023/11/20 10:20:09;;;;;;;;;;;18.10;64.40;;;;;;5027473;28;19996;-54
2023/11/20 10:22:37;;;;;;;;;;;18.10;64.30;;;;;;5047308;22;19921;-66
2023/11/20 10:25:03;;;;;;;;;;;18.10;64.20;;;;;;5022390;28;19977;-66
2023/11/20 10:27:32;;;;;;;;;;;18.20;64.20;;;;;;5025681;28;20395;-68
2023/11/20 10:29:58;;;;;;;;;;;18.10;64.10;;;;;;5018716;28;19989;-66
2023/11/20 10:32:27;;;;;;;;;;;18.20;64.10;;;;;;5018958;28;19917;-66
2023/11/20 10:35:12;;;;;;;;;;;18.20;64.00;;;;;;5028657;28;19983;-66
2023/11/20 10:37:50;;;;;;;;;;;18.20;64.00;;;;;;5024982;28;19919;-66
2023/11/20 10:40:17;;;;;;;;;;;18.20;64.00;;;;;;5028137;28;19909;-65
2023/11/20 10:42:43;;;;;;;;;;;18.20;64.00;;;;;;5025450;28;19931;-64
2023/11/20 10:45:08;;;;;;;;;;;18.20;64.00;;;;;;5028036;28;19917;-66
2023/11/20 10:47:34;;;;;;;;;;;18.20;63.90;;;;;;5026190;28;19917;-66
2023/11/20 10:49:59;;;;;;;;;;;18.20;64.00;;;;;;5024343;28;19917;-66
2023/11/20 10:52:28;;;;;;;;;;;18.30;63.90;;;;;;5026506;28;19944;-66
2023/11/20 10:54:54;;;;;;;;;;;18.30;63.90;;;;;;5026479;28;19909;-66
2023/11/20 10:57:20;;;;;;;;;;;18.30;63.90;;;;;;5023486;28;19909;-65
2023/11/20 10:59:46;;;;;;;;;;;18.30;63.80;;;;;;5022557;28;19939;-65
2023/11/20 11:02:18;;;;;;;;;;;18.30;63.80;;;;;;5025436;28;20004;-64
2023/11/20 11:04:44;;;;;;;;;;;18.30;63.80;;;;;;5025682;28;20042;-66
2023/11/20 11:07:11;;;;;;;;;;;18.30;63.80;;;;;;5020277;28;19909;-66
2023/11/20 11:09:38;;;;;;;;;;;18.30;63.80;;;;;;5021607;28;20478;-66
2023/11/20 11:12:06;;;;;;;;;;;18.30;64.00;;;;;;5021582;28;19945;-66
2023/11/20 11:14:31;;;;;;;;;;;18.30;64.40;;;;;;5022027;28;19916;-65
2023/11/20 11:17:01;;;;;;;;;;;18.40;65.10;;;;;;5023984;28;19909;-65
2023/11/20 11:19:34;;;;;;;;;;;18.40;65.50;;;;;;5027031;28;19995;-65
2023/11/20 11:22:00;;;;;;;;;;;18.40;65.80;;;;;;5020631;28;20051;-62
2023/11/20 11:24:27;;;;;;;;;;;18.40;65.70;;;;;;5016708;28;20418;-65
2023/11/20 11:27:03;;;;;;;;;;;18.40;65.70;;;;;;5025142;28;20430;-65
2023/11/20 11:29:36;;;;;;;;;;;18.40;65.60;;;;;;5026949;28;19909;-66
2023/11/20 11:32:08;;;;;;;;;;;18.40;65.50;;;;;;5023124;28;20407;-63
2023/11/20 11:34:45;;;;;;;;;;;18.40;65.50;;;;;;5024879;28;19913;-66
2023/11/20 11:37:26;;;;;;;;;;;18.40;65.50;;;;;;5018962;28;19916;-67
2023/11/20 11:40:11;;;;;;;;;;;18.40;65.40;;;;;;5023981;28;19937;-65
2023/11/20 11:42:41;;;;;;;;;;;18.40;65.40;;;;;;5023616;28;20288;-65
2023/11/20 11:45:17;;;;;;;;;;;18.40;65.20;;;;;;5024561;28;19959;-65
2023/11/20 11:47:47;;;;;;;;;;;18.40;65.20;;;;;;5020424;28;19917;-65
2023/11/20 11:50:16;;;;;;;;;;;18.40;65.10;;;;;;5025352;28;19924;-65
2023/11/20 11:52:42;;;;;;;;;;;18.40;65.10;;;;;;5023298;28;19920;-65
2023/11/20 11:55:10;;;;;;;;;;;18.40;65.10;;;;;;5024370;28;19913;-65
2023/11/20 11:57:35;;;;;;;;;;;18.40;65.10;;;;;;5021347;28;19913;-66
2023/11/20 12:00:10;;;;;;;;;;;18.40;65.00;;;;;;5022279;28;19909;-66
2023/11/20 12:02:51;;;;;;;;;;;18.40;64.90;;;;;;5019688;28;20364;-64
2023/11/20 12:05:20;;;;;;;;;;;18.40;64.90;;;;;;5018910;28;19909;-65
2023/11/20 12:07:50;;;;;;;;;;;18.40;64.80;;;;;;5021473;28;19951;-65
2023/11/20 12:10:16;;;;;;;;;;;18.40;64.80;;;;;;5019991;28;19910;-65
2023/11/20 12:12:44;;;;;;;;;;;18.40;64.80;;;;;;5021055;28;19913;-66
2023/11/20 12:15:29;;;;;;;;;;;18.40;64.80;;;;;;5018970;28;19917;-65
2023/11/20 12:17:55;;;;;;;;;;;18.40;64.70;;;;;;5023709;28;19963;-66
2023/11/20 12:20:21;;;;;;;;;;;18.40;64.60;;;;;;5020654;28;19937;-65
2023/11/20 12:22:50;;;;;;;;;;;18.40;64.50;;;;;;5021166;28;20036;-65
2023/11/20 12:25:16;;;;;;;;;;;18.40;64.50;;;;;;5016582;28;19916;-66
2023/11/20 12:27:42;;;;;;;;;;;18.40;64.40;;;;;;5018940;28;19914;-66
2023/11/20 12:30:08;;;;;;;;;;;18.40;64.50;;;;;;5021881;28;20016;-66
2023/11/20 12:32:34;;;;;;;;;;;18.30;64.40;;;;;;5023361;28;20007;-66
2023/11/20 12:34:59;;;;;;;;;;;18.30;64.40;;;;;;5014940;28;19913;-66
2023/11/20 12:37:25;;;;;;;;;;;18.30;64.30;;;;;;5023339;28;19909;-66
2023/11/20 12:39:51;;;;;;;;;;;18.30;64.30;;;;;;5019265;28;20253;-66
2023/11/20 12:42:19;;;;;;;;;;;18.30;64.30;;;;;;5021012;28;19989;-65
2023/11/20 12:44:45;;;;;;;;;;;18.30;64.40;;;;;;5018015;28;19914;-65
2023/11/20 12:47:10;;;;;;;;;;;18.30;64.30;;;;;;5023641;28;20027;-65
2023/11/20 12:49:36;;;;;;;;;;;18.30;64.30;;;;;;5021250;28;19909;-66
2023/11/20 12:52:01;;;;;;;;;;;18.30;64.30;;;;;;5022482;28;19917;-65
2023/11/20 12:54:27;;;;;;;;;;;18.30;64.30;;;;;;5021965;28;19944;-66
2023/11/20 12:56:53;;;;;;;;;;;18.30;64.30;;;;;;5021245;28;19921;-66
2023/11/20 12:59:22;;;;;;;;;;;18.30;64.30;;;;;;5023216;28;19909;-66
2023/11/20 13:01:47;;;;;;;;;;;18.30;64.30;;;;;;5021163;28;19948;-66
2023/11/20 13:04:13;;;;;;;;;;;18.30;64.30;;;;;;5023175;28;19958;-66
2023/11/20 13:06:39;;;;;;;;;;;18.30;64.30;;;;;;5022608;28;19916;-66
2023/11/20 13:09:08;;;;;;;;;;;18.30;64.30;;;;;;5018294;28;19999;-65
2023/11/20 13:11:34;;;;;;;;;;;18.30;64.30;;;;;;5024884;28;19913;-66
2023/11/20 13:14:00;;;;;;;;;;;18.30;64.30;;;;;;5005267;28;19967;-65
2023/11/20 13:16:26;;;;;;;;;;;18.30;64.30;;;;;;5022866;28;19978;-65
2023/11/20 13:18:51;;;;;;;;;;;18.30;64.30;;;;;;5020140;28;19909;-65
2023/11/20 13:21:20;;;;;;;;;;;18.40;64.40;;;;;;5019895;28;19921;-66
2023/11/20 13:23:46;;;;;;;;;;;18.40;64.40;;;;;;5020411;28;19952;-65
2023/11/20 13:26:12;;;;;;;;;;;18.40;64.40;;;;;;5022738;28;19955;-65
2023/11/20 13:28:38;;;;;;;;;;;18.40;64.40;;;;;;5017230;28;19940;-66
2023/11/20 13:31:07;;;;;;;;;;;18.40;64.40;;;;;;5015753;28;19913;-64
2023/11/20 13:33:34;;;;;;;;;;;18.40;64.40;;;;;;5021685;28;19923;-65
2023/11/20 13:36:03;;;;;;;;;;;18.40;64.40;;;;;;5020373;28;20415;-65
2023/11/20 13:38:31;;;;;;;;;;;18.40;64.40;;;;;;5019598;28;19919;-65
2023/11/20 13:40:57;;;;;;;;;;;18.40;64.40;;;;;;5018882;28;19917;-66
2023/11/20 13:43:23;;;;;;;;;;;18.40;64.30;;;;;;5021750;28;19967;-66
2023/11/20 13:45:51;;;;;;;;;;;18.40;64.50;;;;;;5019271;28;20388;-66
2023/11/20 13:48:17;;;;;;;;;;;18.40;64.60;;;;;;5020664;28;20957;-64
2023/11/20 13:50:43;;;;;;;;;;;18.40;64.60;;;;;;5014490;28;20372;-65
2023/11/20 13:53:12;;;;;;;;;;;18.40;64.60;;;;;;5015208;28;19963;-66
2023/11/20 13:55:38;;;;;;;;;;;18.40;64.50;;;;;;5018892;28;19948;-65
2023/11/20 13:58:05;;;;;;;;;;;18.40;64.50;;;;;;5003438;28;20602;-66
2023/11/20 14:00:30;;;;;;;;;;;18.30;64.40;;;;;;5021277;28;19917;-66
2023/11/20 14:02:56;;;;;;;;;;;18.30;64.50;;;;;;5011758;28;19909;-66
2023/11/20 14:05:21;;;;;;;;;;;18.30;64.40;;;;;;5020869;28;19920;-68
2023/11/20 14:07:47;;;;;;;;;;;18.30;64.30;;;;;;5021479;28;19917;-65
2023/11/20 14:10:15;;;;;;;;;;;18.40;64.30;;;;;;5005020;28;19919;-66
2023/11/20 14:12:43;;;;;;;;;;;18.40;64.30;;;;;;5012535;28;19988;-66